Time;durP1;ratioP1;P1;durP2;ratioP2;P2;SDS_P1;SDS_P2;PMS_P1;PMS_P2;Temp;Humidity;BMP_temperature;BMP_pressure;BME280_temperature;BME280_humidity;BME280_pressure;Samples;Min_cycle;Max_cycle;Signal;HPM_P1;HPM_P2
2022/10/07 00:00:58;;;;;;;2.88;0.40;;;8.80;99.90;;;;;;5042710;28;20083;-83
2022/10/07 00:03:25;;;;;;;3.65;0.52;;;8.80;99.90;;;;;;5010669;28;20036;-83
2022/10/07 00:06:10;;;;;;;2.88;0.43;;;8.90;99.90;;;;;;5026780;28;20034;-83
2022/10/07 00:08:37;;;;;;;1.35;0.32;;;8.90;99.90;;;;;;5043738;28;20026;-83
2022/10/07 00:11:17;;;;;;;5.70;0.70;;;8.90;99.90;;;;;;4990512;28;20485;-83
2022/10/07 00:13:44;;;;;;;;;;;8.90;99.90;;;;;;5040091;28;20037;-83
2022/10/07 00:16:16;;;;;;;2.47;0.43;;;8.90;99.90;;;;;;5027617;28;19954;-82
2022/10/07 00:18:42;;;;;;;2.38;0.50;;;8.90;99.90;;;;;;5011042;28;20478;-82
2022/10/07 00:21:10;;;;;;;2.13;0.40;;;8.90;99.90;;;;;;5013633;28;20116;-84
2022/10/07 00:23:37;;;;;;;2.03;0.50;;;8.90;99.90;;;;;;5044233;28;20029;-83
2022/10/07 00:26:06;;;;;;;4.93;0.60;;;8.90;99.90;;;;;;5026937;28;20029;-83
2022/10/07 00:28:32;;;;;;;2.95;0.52;;;8.90;99.90;;;;;;5046807;28;20034;-83
2022/10/07 00:31:04;;;;;;;2.67;0.50;;;8.80;99.90;;;;;;5029886;28;20024;-83
2022/10/07 00:33:33;;;;;;;3.17;0.60;;;8.90;99.90;;;;;;4996847;28;20033;-83
2022/10/07 00:35:58;;;;;;;3.63;0.50;;;8.90;99.90;;;;;;5031678;28;20400;-83
2022/10/07 00:38:24;;;;;;;1.92;0.40;;;8.80;99.90;;;;;;4992322;28;20037;-83
2022/10/07 00:40:49;;;;;;;3.22;0.45;;;8.80;99.90;;;;;;5046758;28;20100;-83
2022/10/07 00:43:25;;;;;;;2.72;0.40;;;8.80;99.90;;;;;;5012010;28;20124;-82
2022/10/07 00:45:54;;;;;;;3.03;0.50;;;8.80;99.90;;;;;;5046393;28;20030;-82
2022/10/07 00:48:25;;;;;;;2.47;0.50;;;8.80;99.90;;;;;;4996804;28;20097;-83
2022/10/07 00:50:53;;;;;;;2.63;0.63;;;8.80;99.90;;;;;;5045853;28;20053;-83
2022/10/07 00:53:20;;;;;;;5.30;0.50;;;8.80;99.90;;;;;;5043892;28;20033;-83
2022/10/07 00:55:46;;;;;;;3.90;0.77;;;8.80;99.90;;;;;;5045142;28;20067;-83
2022/10/07 00:58:12;;;;;;;2.58;0.50;;;8.80;99.90;;;;;;5029176;28;20059;-83
2022/10/07 01:00:39;;;;;;;2.75;0.50;;;8.80;99.90;;;;;;5029331;28;20048;-83
2022/10/07 01:03:05;;;;;;;3.63;0.52;;;8.80;99.90;;;;;;5029096;28;20029;-82
2022/10/07 01:05:32;;;;;;;2.30;0.50;;;8.80;99.90;;;;;;5029541;28;20132;-83
2022/10/07 01:07:58;;;;;;;4.10;0.88;;;8.80;99.90;;;;;;5012734;28;20104;-84
2022/10/07 01:10:41;;;;;;;4.00;0.60;;;8.90;99.90;;;;;;5046138;28;20493;-84
2022/10/07 01:13:22;;;;;;;2.10;0.63;;;8.90;99.90;;;;;;4995124;28;20021;-83
2022/10/07 01:16:15;;;;;;;3.33;0.63;;;8.90;99.90;;;;;;5013602;28;20025;-84
2022/10/07 01:18:54;;;;;;;4.03;0.60;;;8.80;99.90;;;;;;4996505;28;20029;-84
2022/10/07 01:21:25;;;;;;;2.17;0.45;;;8.80;99.90;;;;;;5016487;28;20036;-83
2022/10/07 01:24:13;;;;;;;4.07;0.60;;;8.90;99.90;;;;;;4996570;28;20109;-84
2022/10/07 01:26:54;;;;;;;2.97;1.17;;;8.90;99.90;;;;;;5012855;28;20034;-83
2022/10/07 01:30:00;;;;;;;3.30;0.68;;;8.80;99.90;;;;;;4995606;28;20112;-83
2022/10/07 01:32:46;;;;;;;5.55;0.50;;;8.80;99.90;;;;;;4954760;28;20035;-83
2022/10/07 01:35:18;;;;;;;4.45;0.57;;;8.70;99.90;;;;;;4957098;28;20062;-83
2022/10/07 01:37:49;;;;;;;2.10;0.40;;;8.80;99.90;;;;;;4953461;28;20038;-84
2022/10/07 01:40:19;;;;;;;3.58;0.70;;;8.80;99.90;;;;;;4934480;29;20051;-83
2022/10/07 01:42:45;;;;;;;6.53;0.85;;;8.80;99.90;;;;;;4937364;29;20428;-83
2022/10/07 01:45:19;;;;;;;2.38;0.40;;;8.80;99.90;;;;;;4940111;28;20050;-83
2022/10/07 01:47:49;;;;;;;4.50;0.60;;;8.80;99.90;;;;;;4936411;29;20143;-83
2022/10/07 01:50:16;;;;;;;2.65;0.43;;;8.80;99.90;;;;;;4938359;28;20019;-83
2022/10/07 01:53:23;;;;;;;3.67;0.40;;;8.80;99.90;;;;;;4951384;28;20032;-83
2022/10/07 01:56:07;;;;;;;2.35;0.40;;;8.70;99.90;;;;;;4911319;29;20447;-83
2022/10/07 01:58:53;;;;;;;3.35;0.40;;;8.70;99.90;;;;;;4935699;29;20480;-83
2022/10/07 02:01:27;;;;;;;3.33;0.40;;;8.70;99.90;;;;;;4954351;28;20072;-83
2022/10/07 02:04:18;;;;;;;4.32;0.40;;;8.70;99.90;;;;;;4951901;28;20032;-84
2022/10/07 02:06:53;;;;;;;3.15;0.30;;;8.70;99.90;;;;;;4988115;28;20444;-83
2022/10/07 02:09:21;;;;;;;3.35;0.40;;;8.70;99.90;;;;;;5011604;28;20025;-83
2022/10/07 02:11:54;;;;;;;2.97;0.45;;;8.70;99.90;;;;;;5028480;28;20021;-83
2022/10/07 02:14:30;;;;;;;2.05;0.35;;;8.70;99.90;;;;;;4993442;28;20041;-83
2022/10/07 02:17:04;;;;;;;1.75;0.32;;;8.60;99.90;;;;;;5027661;28;20052;-83
2022/10/07 02:19:38;;;;;;;4.88;0.40;;;8.60;99.90;;;;;;5042330;28;20118;-83
2022/10/07 02:22:05;;;;;;;1.20;0.30;;;8.60;99.90;;;;;;5028268;28;20763;-83
2022/10/07 02:24:37;;;;;;;1.50;0.25;;;8.60;99.90;;;;;;5044056;28;20040;-83
2022/10/07 02:27:10;;;;;;;2.47;0.40;;;8.60;99.90;;;;;;5044516;28;20025;-83
2022/10/07 02:29:40;;;;;;;2.85;0.40;;;8.60;99.90;;;;;;5028581;28;20036;-83
2022/10/07 02:32:10;;;;;;;1.42;0.30;;;8.50;99.90;;;;;;5028476;28;20133;-83
2022/10/07 02:34:37;;;;;;;1.65;0.30;;;8.60;99.90;;;;;;5045210;28;20035;-83
2022/10/07 02:37:13;;;;;;;2.30;0.40;;;8.50;99.90;;;;;;5044609;28;20061;-84
2022/10/07 02:39:39;;;;;;;4.05;0.40;;;8.60;99.90;;;;;;5012159;28;20029;-84
2022/10/07 02:42:32;;;;;;;2.22;0.30;;;8.60;99.90;;;;;;4993779;28;20515;-84
2022/10/07 02:45:15;;;;;;;1.60;0.40;;;8.60;99.90;;;;;;5045071;28;20488;-83
2022/10/07 02:47:52;;;;;;;1.42;0.30;;;8.50;99.90;;;;;;5044588;28;20040;-84
2022/10/07 02:50:22;;;;;;;3.13;0.40;;;8.50;99.90;;;;;;5011262;28;20037;-84
2022/10/07 02:52:51;;;;;;;2.33;0.40;;;8.50;99.90;;;;;;5044580;28;20111;-84
2022/10/07 02:55:22;;;;;;;1.40;0.30;;;8.50;99.90;;;;;;5026807;28;20388;-83
2022/10/07 02:57:51;;;;;;;3.35;0.40;;;8.50;99.90;;;;;;5027827;28;20409;-84
2022/10/07 03:00:18;;;;;;;5.25;0.50;;;8.50;99.90;;;;;;5010572;28;20330;-84
2022/10/07 03:03:02;;;;;;;3.80;0.32;;;8.40;99.90;;;;;;5011102;28;20018;-84
2022/10/07 03:05:41;;;;;;;4.22;0.45;;;8.50;99.90;;;;;;5011654;28;20029;-83
2022/10/07 03:08:09;;;;;;;2.78;0.40;;;8.50;99.90;;;;;;5027754;28;20021;-83
2022/10/07 03:10:36;;;;;;;2.83;0.35;;;8.50;99.90;;;;;;5011822;28;20029;-84
2022/10/07 03:13:03;;;;;;;1.85;0.30;;;8.40;99.90;;;;;;5027162;28;20024;-83
2022/10/07 03:15:31;;;;;;;5.57;0.80;;;8.50;99.90;;;;;;4994446;28;20029;-85
2022/10/07 03:17:57;;;;;;;2.22;0.40;;;8.40;99.90;;;;;;5043454;28;20485;-84
2022/10/07 03:20:24;;;;;;;2.80;0.45;;;8.40;99.90;;;;;;5026861;28;20107;-84
2022/10/07 03:22:50;;;;;;;4.70;0.52;;;8.40;99.90;;;;;;5043736;28;20496;-85
2022/10/07 03:25:17;;;;;;;3.42;0.40;;;8.40;99.90;;;;;;5009206;28;20056;-84
2022/10/07 03:27:43;;;;;;;1.70;0.40;;;8.40;99.90;;;;;;5043913;28;20501;-84
2022/10/07 03:30:10;;;;;;;3.55;0.30;;;8.40;99.90;;;;;;5010367;28;20183;-84
2022/10/07 03:32:40;;;;;;;2.70;0.38;;;8.30;99.90;;;;;;5010244;28;20277;-84
2022/10/07 03:35:07;;;;;;;3.13;0.50;;;8.40;99.90;;;;;;4994658;28;20033;-84
2022/10/07 03:37:33;;;;;;;2.42;0.38;;;8.30;99.90;;;;;;5043113;28;20037;-84
2022/10/07 03:39:59;;;;;;;3.72;0.40;;;8.30;99.90;;;;;;4994585;28;20033;-84
2022/10/07 03:42:24;;;;;;;2.47;0.35;;;8.30;99.90;;;;;;4993497;28;20049;-85
2022/10/07 03:44:50;;;;;;;3.33;0.40;;;8.30;99.90;;;;;;5044318;28;20110;-84
2022/10/07 03:47:17;;;;;;;2.80;0.52;;;8.30;99.90;;;;;;4993864;28;20022;-84
2022/10/07 03:49:44;;;;;;;2.75;0.40;;;8.40;99.90;;;;;;4991043;28;20034;-84
2022/10/07 03:52:10;;;;;;;1.58;0.40;;;8.30;99.90;;;;;;5010345;28;20071;-85
2022/10/07 03:54:36;;;;;;;3.10;0.30;;;8.30;99.90;;;;;;5014340;28;20025;-84
2022/10/07 03:57:48;;;;;;;1.90;0.30;;;8.30;99.90;;;;;;4998345;28;20501;-84
2022/10/07 03:59:49;;;;;;;3.20;0.40;;;8.30;99.90;;;;;;5013525;28;20048;-84
2022/10/07 04:02:15;;;;;;;5.13;0.40;;;8.30;99.90;;;;;;5030327;28;20018;-84
2022/10/07 04:04:41;;;;;;;1.95;0.73;;;8.30;99.90;;;;;;4998003;28;20488;-84
2022/10/07 04:07:06;;;;;;;2.97;0.30;;;8.30;99.90;;;;;;4997857;28;20036;-84
2022/10/07 04:09:32;;;;;;;3.85;0.50;;;8.20;99.90;;;;;;4998537;28;20129;-85
2022/10/07 04:11:58;;;;;;;2.38;0.32;;;8.30;99.90;;;;;;5014117;28;20523;-84
2022/10/07 04:14:24;;;;;;;3.00;0.40;;;8.30;99.90;;;;;;5031756;28;20481;-84
2022/10/07 04:16:49;;;;;;;2.83;0.40;;;8.30;99.90;;;;;;4998211;28;20466;-85
2022/10/07 04:19:15;;;;;;;4.30;0.50;;;8.30;99.90;;;;;;5013166;28;20508;-84
2022/10/07 04:21:41;;;;;;;2.17;0.60;;;8.30;99.90;;;;;;4997826;28;20376;-84
2022/10/07 04:24:07;;;;;;;3.15;0.47;;;8.20;99.90;;;;;;4994037;28;20025;-85
2022/10/07 04:26:34;;;;;;;5.70;0.40;;;8.20;99.90;;;;;;4998273;28;20021;-84
2022/10/07 04:29:01;;;;;;;5.50;0.55;;;8.20;99.90;;;;;;5030217;28;20398;-84
2022/10/07 04:31:26;;;;;;;4.05;0.35;;;8.20;99.90;;;;;;5013057;28;20118;-84
2022/10/07 04:33:57;;;;;;;5.00;0.40;;;8.10;99.90;;;;;;5046955;28;20125;-84
2022/10/07 04:36:28;;;;;;;2.22;0.35;;;8.20;99.90;;;;;;5030535;28;20072;-84
2022/10/07 04:39:06;;;;;;;2.88;0.50;;;8.10;99.90;;;;;;4998964;28;20443;-84
2022/10/07 04:41:40;;;;;;;2.03;0.40;;;8.10;99.90;;;;;;5012952;28;20079;-85
2022/10/07 04:44:11;;;;;;;2.00;0.40;;;8.10;99.90;;;;;;5013556;28;20022;-85
2022/10/07 04:46:44;;;;;;;1.80;0.43;;;8.10;99.90;;;;;;4995353;28;20526;-84
2022/10/07 04:49:12;;;;;;;5.57;0.50;;;8.10;99.90;;;;;;4997683;28;20044;-84
2022/10/07 04:51:38;;;;;;;6.10;0.40;;;8.20;99.90;;;;;;4996951;28;20026;-84
2022/10/07 04:54:05;;;;;;;4.45;0.40;;;8.20;99.90;;;;;;5046291;28;20112;-84
2022/10/07 04:56:37;;;;;;;3.05;0.50;;;8.20;99.90;;;;;;5046822;28;20022;-84
2022/10/07 04:59:05;;;;;;;4.32;0.40;;;8.10;99.90;;;;;;5010249;28;20029;-84
2022/10/07 05:01:32;;;;;;;4.13;0.40;;;8.20;99.90;;;;;;5013090;28;20037;-85
2022/10/07 05:03:58;;;;;;;3.80;0.40;;;8.10;99.90;;;;;;4997175;28;20156;-84
2022/10/07 05:06:24;;;;;;;3.00;0.40;;;8.20;99.90;;;;;;5047163;28;20036;-84
2022/10/07 05:08:53;;;;;;;5.22;0.68;;;8.10;99.90;;;;;;4994028;28;20465;-84
2022/10/07 05:11:19;;;;;;;5.45;0.70;;;8.10;99.90;;;;;;5011827;28;20041;-84
2022/10/07 05:13:54;;;;;;;4.10;1.02;;;8.10;99.90;;;;;;4997948;28;20025;-85
2022/10/07 05:16:20;;;;;;;3.35;0.50;;;8.10;99.90;;;;;;5030034;28;20044;-84
2022/10/07 05:18:46;;;;;;;3.70;0.63;;;8.20;99.90;;;;;;5013503;28;20385;-85
2022/10/07 05:21:13;;;;;;;1.75;0.30;;;8.20;99.90;;;;;;5013201;28;20025;-85
2022/10/07 05:23:42;;;;;;;3.47;0.40;;;8.20;99.90;;;;;;4997626;28;20542;-85
2022/10/07 05:26:13;;;;;;;5.25;0.40;;;8.10;99.90;;;;;;4997046;28;20029;-85
2022/10/07 05:28:43;;;;;;;3.85;0.50;;;8.20;99.90;;;;;;5029505;28;20545;-85
2022/10/07 05:31:12;;;;;;;2.42;0.40;;;8.20;99.90;;;;;;5012354;28;20516;-86
2022/10/07 05:33:41;;;;;;;4.45;0.45;;;8.10;99.90;;;;;;5029080;28;20147;-84
2022/10/07 05:36:08;;;;;;;1.88;0.40;;;8.10;99.90;;;;;;4996846;28;20021;-84
2022/10/07 05:38:38;;;;;;;2.63;0.50;;;8.20;99.90;;;;;;5012751;28;20040;-85
2022/10/07 05:41:06;;;;;;;6.88;0.60;;;8.10;99.90;;;;;;5045117;28;20018;-84
2022/10/07 05:43:35;;;;;;;2.72;0.40;;;8.10;99.90;;;;;;5028324;28;20128;-84
2022/10/07 05:46:12;;;;;;;2.47;0.40;;;8.10;99.90;;;;;;5045073;28;20398;-84
2022/10/07 05:48:45;;;;;;;2.25;0.40;;;8.10;99.90;;;;;;5029061;28;20428;-84
2022/10/07 05:51:12;;;;;;;;;;;8.10;99.90;;;;;;5028787;28;20030;-85
2022/10/07 05:53:40;;;;;;;4.35;0.40;;;8.10;99.90;;;;;;4994956;28;19920;-84
2022/10/07 05:56:07;;;;;;;2.17;0.40;;;8.20;99.90;;;;;;5028105;28;20068;-84
2022/10/07 05:58:37;;;;;;;3.70;0.40;;;8.10;99.90;;;;;;5011601;28;20140;-85
2022/10/07 06:01:12;;;;;;;3.40;0.50;;;8.20;99.90;;;;;;5011596;28;20061;-84
2022/10/07 06:03:38;;;;;;;3.60;0.50;;;8.10;99.90;;;;;;5017086;28;20026;-85
2022/10/07 06:06:04;;;;;;;5.43;0.60;;;8.10;99.90;;;;;;5028595;28;20048;-84
2022/10/07 06:08:30;;;;;;;1.40;0.30;;;8.10;99.90;;;;;;5027489;28;20113;-84
2022/10/07 06:13:50;;;;;;;2.75;0.30;;;8.10;99.90;;;;;;5011016;28;20489;-84
2022/10/07 06:16:16;;;;;;;2.08;0.50;;;8.10;99.90;;;;;;5027502;28;20577;-84
2022/10/07 06:18:42;;;;;;;4.82;0.50;;;8.10;99.90;;;;;;4994372;28;20108;-84
2022/10/07 06:21:07;;;;;;;2.08;0.30;;;8.20;99.90;;;;;;5011085;28;20037;-86
2022/10/07 06:23:34;;;;;;;3.63;0.40;;;8.20;99.90;;;;;;4995454;28;20064;-84
2022/10/07 06:26:03;;;;;;;4.40;0.50;;;8.20;99.90;;;;;;5027392;28;20434;-84
2022/10/07 06:28:37;;;;;;;3.70;0.40;;;8.20;99.90;;;;;;5026498;28;20368;-84
2022/10/07 06:31:09;;;;;;;3.53;0.40;;;8.30;99.90;;;;;;4999017;28;20026;-84
2022/10/07 06:33:35;;;;;;;2.60;0.45;;;8.30;99.90;;;;;;5044446;28;20076;-83
2022/10/07 06:36:03;;;;;;;3.38;0.40;;;8.30;99.90;;;;;;5027772;28;20509;-85
2022/10/07 06:38:29;;;;;;;3.17;0.40;;;8.30;99.90;;;;;;5012984;28;20025;-84
2022/10/07 06:40:57;;;;;;;4.78;0.40;;;8.40;99.90;;;;;;5010776;28;20044;-82
2022/10/07 06:43:31;;;;;;;2.15;0.70;;;8.50;99.90;;;;;;4994272;28;20198;-84
2022/10/07 06:46:17;;;;;;;6.15;0.57;;;8.50;99.90;;;;;;5041001;28;20425;-84
2022/10/07 06:48:45;;;;;;;1.92;0.40;;;8.60;99.90;;;;;;5010743;28;20096;-84
2022/10/07 06:51:16;;;;;;;5.53;0.40;;;8.60;99.90;;;;;;5026613;28;20116;-84
2022/10/07 06:53:43;;;;;;;6.10;0.50;;;8.70;99.90;;;;;;5011748;28;20116;-83
2022/10/07 06:56:10;;;;;;;2.88;0.50;;;8.80;99.90;;;;;;5026066;28;20033;-83
2022/10/07 06:58:37;;;;;;;6.80;0.50;;;8.80;99.90;;;;;;4994868;28;20366;-84
2022/10/07 07:01:04;;;;;;;1.80;0.40;;;8.90;99.90;;;;;;5011299;28;20111;-85
2022/10/07 07:03:31;;;;;;;8.00;0.60;;;8.90;99.90;;;;;;4993135;28;20422;-84
2022/10/07 07:05:59;;;;;;;3.00;0.70;;;8.90;99.90;;;;;;4994597;28;20049;-85
2022/10/07 07:08:31;;;;;;;2.95;0.47;;;9.10;99.90;;;;;;5024121;28;20198;-85
2022/10/07 07:13:58;;;;;;;3.13;0.55;;;9.10;99.90;;;;;;5009919;28;20454;-86
2022/10/07 07:16:25;;;;;;;4.70;0.60;;;9.20;99.90;;;;;;5010445;28;20512;-86
2022/10/07 07:18:57;;;;;;;3.85;0.80;;;9.20;99.90;;;;;;4995317;28;20021;-86
2022/10/07 07:21:24;;;;;;;5.65;0.90;;;9.30;99.90;;;;;;4995167;28;20366;-86
2022/10/07 07:23:50;;;;;;;3.90;0.60;;;9.30;99.90;;;;;;4993645;28;20022;-86
2022/10/07 07:26:19;;;;;;;7.03;0.98;;;9.40;99.90;;;;;;5027560;28;20025;-86
2022/10/07 07:29:13;;;;;;;3.78;0.50;;;9.50;99.90;;;;;;5044023;28;20025;-85
2022/10/07 07:31:48;;;;;;;2.88;0.60;;;9.60;99.90;;;;;;5016831;28;20539;-85
2022/10/07 07:34:14;;;;;;;2.85;0.50;;;9.60;99.90;;;;;;4994375;28;20159;-85
2022/10/07 07:36:44;;;;;;;4.43;0.63;;;9.70;99.90;;;;;;4994942;28;20116;-86
2022/10/07 07:39:12;;;;;;;3.42;0.55;;;9.80;99.90;;;;;;5009677;28;20477;-87
2022/10/07 07:41:41;;;;;;;8.82;1.05;;;9.90;99.90;;;;;;5010153;28;20045;-85
2022/10/07 07:44:10;;;;;;;3.55;0.75;;;10.10;99.90;;;;;;5026486;28;20034;-85
2022/10/07 07:46:47;;;;;;;5.53;0.70;;;10.30;99.90;;;;;;4994421;28;20030;-85
2022/10/07 07:49:14;;;;;;;3.63;0.60;;;10.40;99.90;;;;;;5025640;28;20037;-85
2022/10/07 07:51:42;;;;;;;4.18;0.93;;;10.50;99.90;;;;;;5026041;28;20022;-85
2022/10/07 07:54:11;;;;;;;3.63;0.70;;;10.70;99.90;;;;;;5022772;28;20037;-86
2022/10/07 07:56:38;;;;;;;9.38;0.98;;;10.80;99.90;;;;;;5042913;28;20014;-85
2022/10/07 07:59:04;;;;;;;4.70;0.70;;;11.10;99.90;;;;;;4993315;28;20095;-84
2022/10/07 08:01:31;;;;;;;3.53;0.70;;;11.20;99.90;;;;;;5009886;28;20052;-85
2022/10/07 08:03:58;;;;;;;6.55;0.60;;;11.40;99.90;;;;;;5026107;28;20493;-85
2022/10/07 08:06:26;;;;;;;4.40;0.52;;;11.60;99.90;;;;;;5025182;28;20034;-84
2022/10/07 08:08:56;;;;;;;3.47;0.60;;;11.90;99.90;;;;;;5042009;28;20026;-85
2022/10/07 08:11:22;;;;;;;3.05;0.50;;;12.20;99.90;;;;;;5024458;28;20018;-87
2022/10/07 08:13:50;;;;;;;4.45;0.50;;;12.30;99.90;;;;;;5041871;28;20030;-83
2022/10/07 08:16:20;;;;;;;3.67;0.63;;;12.30;99.90;;;;;;5017429;28;20030;-85
2022/10/07 08:18:48;;;;;;;;;;;12.30;99.90;;;;;;5042508;28;20061;-84
2022/10/07 08:21:19;;;;;;;7.90;0.60;;;12.30;99.90;;;;;;5007273;28;19913;-81
2022/10/07 08:23:56;;;;;;;6.10;0.60;;;12.50;99.90;;;;;;5026703;28;20104;-84
2022/10/07 08:26:23;;;;;;;4.50;0.50;;;12.40;99.90;;;;;;5025245;28;20369;-86
2022/10/07 08:28:49;;;;;;;6.22;0.50;;;12.70;99.90;;;;;;5025895;28;20108;-83
2022/10/07 08:31:17;;;;;;;5.28;0.70;;;12.80;99.90;;;;;;5025483;28;20430;-83
2022/10/07 08:33:44;;;;;;;4.72;0.75;;;12.70;99.90;;;;;;5025654;28;20022;-84
2022/10/07 08:36:13;;;;;;;4.78;0.50;;;12.90;99.90;;;;;;5042363;28;20029;-86
2022/10/07 08:38:40;;;;;;;6.95;0.60;;;13.10;99.90;;;;;;5009011;28;20110;-83
2022/10/07 08:41:05;;;;;;;3.90;0.68;;;13.10;99.90;;;;;;5029055;28;20038;-83
2022/10/07 08:43:32;;;;;;;6.15;0.60;;;13.40;99.90;;;;;;5031727;28;20384;-83
2022/10/07 08:45:59;;;;;;;4.45;0.68;;;13.50;99.90;;;;;;5065341;28;20067;-83
2022/10/07 08:48:31;;;;;;;6.13;0.73;;;13.40;99.90;;;;;;5065286;28;20099;-84
2022/10/07 08:50:56;;;;;;;4.22;0.50;;;13.60;99.90;;;;;;5032098;28;20063;-82
2022/10/07 08:53:29;;;;;;;4.78;0.60;;;13.80;99.90;;;;;;5031607;28;20065;-85
2022/10/07 08:56:11;;;;;;;3.70;0.50;;;14.00;99.90;;;;;;5049004;28;20075;-84
2022/10/07 08:59:03;;;;;;;5.70;0.80;;;14.10;99.90;;;;;;5031830;28;20037;-85
2022/10/07 09:01:50;;;;;;;3.15;0.50;;;14.20;99.90;;;;;;5049504;28;20029;-85
2022/10/07 09:04:53;;;;;;;4.45;0.40;;;14.40;99.90;;;;;;5028778;28;20029;-84
2022/10/07 09:07:44;;;;;;;4.30;0.80;;;14.30;99.90;;;;;;5049509;28;20457;-85
2022/10/07 09:10:09;;;;;;;6.18;0.75;;;14.30;99.90;;;;;;5047102;28;20428;-86
2022/10/07 09:12:45;;;;;;;3.13;0.43;;;14.30;99.90;;;;;;5031430;28;20025;-83
2022/10/07 09:15:26;;;;;;;2.72;0.47;;;14.50;99.90;;;;;;5012276;28;20488;-84
2022/10/07 09:18:02;;;;;;;6.50;0.70;;;14.60;99.90;;;;;;5032113;28;20063;-84
2022/10/07 09:20:36;;;;;;;3.97;0.68;;;14.60;99.90;;;;;;5031159;28;20707;-84
2022/10/07 09:23:03;;;;;;;4.30;0.95;;;14.70;99.90;;;;;;5048364;28;20044;-87
2022/10/07 09:25:30;;;;;;;3.63;0.47;;;14.70;99.90;;;;;;5049988;28;20041;-84
2022/10/07 09:27:56;;;;;;;5.35;0.32;;;14.80;99.90;;;;;;5050345;28;20457;-85
2022/10/07 09:30:23;;;;;;;5.03;0.50;;;15.00;99.90;;;;;;5048347;28;20033;-85
2022/10/07 09:32:53;;;;;;;4.60;0.57;;;14.80;99.90;;;;;;5031974;28;20029;-82
2022/10/07 09:35:22;;;;;;;4.25;0.70;;;15.00;99.90;;;;;;5047751;28;20455;-84
2022/10/07 09:38:02;;;;;;;3.90;0.47;;;15.30;99.90;;;;;;5049234;28;20032;-84
2022/10/07 09:41:30;;;;;;;5.78;0.40;;;15.40;99.90;;;;;;5064087;28;20040;-83
2022/10/07 09:43:27;;;;;;;5.57;0.50;;;15.50;99.90;;;;;;5044239;28;20041;-83
2022/10/07 09:45:55;;;;;;;7.55;0.57;;;15.50;99.90;;;;;;5064250;28;20052;-84
2022/10/07 09:48:24;;;;;;;6.07;0.70;;;15.50;99.90;;;;;;5031183;28;20025;-82
2022/10/07 09:50:50;;;;;;;5.00;0.65;;;15.30;99.90;;;;;;5064491;28;20032;-84
2022/10/07 09:53:25;;;;;;;4.75;0.50;;;15.30;99.90;;;;;;5031685;28;20033;-84
2022/10/07 09:55:54;;;;;;;4.60;0.60;;;15.60;99.90;;;;;;5031815;28;20035;-86
2022/10/07 09:58:28;;;;;;;5.68;0.40;;;15.70;99.90;;;;;;5023528;28;20556;-87
2022/10/07 10:01:00;;;;;;;10.90;0.80;;;15.90;99.90;;;;;;5030562;28;20495;-85
2022/10/07 10:03:33;;;;;;;4.35;0.40;;;15.90;99.90;;;;;;4993595;28;20033;-85
2022/10/07 10:06:00;;;;;;;5.35;0.50;;;16.20;99.90;;;;;;5027497;28;20125;-86
2022/10/07 10:08:42;;;;;;;5.00;0.40;;;16.30;99.90;;;;;;4995850;28;20090;-86
2022/10/07 10:11:17;;;;;;;4.20;0.40;;;16.60;99.90;;;;;;5029663;28;20530;-86
2022/10/07 10:13:43;;;;;;;4.45;0.35;;;17.00;99.90;;;;;;5016362;28;20037;-88
2022/10/07 10:16:24;;;;;;;4.72;0.40;;;17.20;99.90;;;;;;5027529;28;20538;-88
2022/10/07 10:18:57;;;;;;;6.25;0.60;;;17.40;99.90;;;;;;5016158;28;20570;-86
2022/10/07 10:21:39;;;;;;;4.28;0.35;;;17.30;99.90;;;;;;5030776;28;20036;-82
2022/10/07 10:24:11;;;;;;;5.90;0.60;;;17.30;99.90;;;;;;5029526;28;20033;-85
2022/10/07 10:26:43;;;;;;;5.95;0.40;;;17.20;99.90;;;;;;5046111;28;20033;-85
2022/10/07 10:29:34;;;;;;;3.95;0.32;;;17.60;99.90;;;;;;5030797;28;20095;-86
2022/10/07 10:32:00;;;;;;;6.40;0.47;;;17.90;99.90;;;;;;5047654;28;20021;-86
2022/10/07 10:34:49;;;;;;;5.13;0.40;;;17.70;99.90;;;;;;5047180;28;20467;-89
2022/10/07 10:37:22;;;;;;;3.10;0.32;;;17.60;99.90;;;;;;5044406;28;20032;-84
2022/10/07 10:39:56;;;;;;;3.47;0.40;;;17.40;99.90;;;;;;5030280;28;20102;-88
2022/10/07 10:42:32;;;;;;;3.75;0.40;;;17.50;99.90;;;;;;5028045;28;20064;-87
2022/10/07 10:45:20;;;;;;;5.20;0.30;;;17.80;99.90;;;;;;5031007;28;20120;-85
2022/10/07 10:48:15;;;;;;;3.67;0.30;;;17.70;99.90;;;;;;5062409;28;20036;-86
2022/10/07 10:50:56;;;;;;;2.70;0.30;;;17.40;99.90;;;;;;5063404;28;20564;-84
2022/10/07 10:54:00;;;;;;;5.15;0.40;;;17.70;99.90;;;;;;5046446;28;20017;-85
2022/10/07 10:56:50;;;;;;;6.22;0.50;;;17.10;99.90;;;;;;5028756;28;20272;-83
2022/10/07 10:59:33;;;;;;;5.70;0.30;;;17.00;99.90;;;;;;5030004;28;20041;-85
2022/10/07 11:02:21;;;;;;;4.75;0.40;;;17.40;99.90;;;;;;5063049;28;20465;-86
2022/10/07 11:04:50;;;;;;;5.68;0.50;;;17.10;99.90;;;;;;5029490;28;20043;-83
2022/10/07 11:07:26;;;;;;;7.95;0.60;;;17.30;99.90;;;;;;5028530;28;20029;-84
2022/10/07 11:10:01;;;;;;;5.15;0.40;;;16.90;99.90;;;;;;5026740;28;20096;-83
2022/10/07 11:12:37;;;;;;;2.13;0.30;;;17.40;99.90;;;;;;5045311;28;20332;-84
2022/10/07 11:15:15;;;;;;;2.47;0.20;;;17.50;99.90;;;;;;5013380;28;20419;-85
2022/10/07 11:17:42;;;;;;;3.78;0.20;;;17.30;99.90;;;;;;5046756;28;20059;-87
2022/10/07 11:20:16;;;;;;;3.42;0.30;;;17.30;99.90;;;;;;5044509;28;20064;-84
2022/10/07 11:22:49;;;;;;;4.38;0.30;;;17.70;99.90;;;;;;5045768;28;20034;-84
2022/10/07 11:25:32;;;;;;;3.88;0.30;;;17.80;99.90;;;;;;5029301;28;20025;-84
2022/10/07 11:28:10;;;;;;;4.22;0.30;;;17.50;99.90;;;;;;5062851;28;20029;-85
2022/10/07 11:30:44;;;;;;;5.15;0.40;;;17.60;99.90;;;;;;5061760;28;20067;-85
2022/10/07 11:33:17;;;;;;;4.25;0.35;;;18.00;99.90;;;;;;5061663;28;20116;-85
2022/10/07 11:35:50;;;;;;;5.05;0.50;;;18.00;99.90;;;;;;5028456;28;20393;-83
2022/10/07 11:38:26;;;;;;;4.95;0.35;;;18.00;99.90;;;;;;5028508;28;20052;-85
2022/10/07 11:41:00;;;;;;;5.00;0.82;;;17.50;99.90;;;;;;5029095;28;20167;-86
2022/10/07 11:43:33;;;;;;;3.78;0.20;;;17.70;99.90;;;;;;5012339;28;20045;-83
2022/10/07 11:46:05;;;;;;;4.18;0.32;;;17.80;99.90;;;;;;5045606;28;20049;-83
2022/10/07 11:49:10;;;;;;;3.92;0.30;;;17.60;99.90;;;;;;5028777;28;20087;-83
2022/10/07 11:51:56;;;;;;;5.03;0.30;;;17.90;99.90;;;;;;5036165;28;20473;-85
2022/10/07 11:54:27;;;;;;;6.15;0.30;;;18.00;99.90;;;;;;5025147;28;20029;-83
2022/10/07 11:56:59;;;;;;;4.00;0.35;;;17.70;99.90;;;;;;5044225;28;20552;-83
2022/10/07 11:59:41;;;;;;;4.43;0.35;;;17.70;99.90;;;;;;5061411;28;20076;-84
2022/10/07 12:02:26;;;;;;;4.63;0.32;;;17.90;99.90;;;;;;5046854;28;20099;-83
2022/10/07 12:04:58;;;;;;;3.80;0.35;;;17.90;99.90;;;;;;5045899;28;20020;-86
2022/10/07 12:07:36;;;;;;;2.80;0.30;;;18.10;99.90;;;;;;5045086;28;20103;-85
2022/10/07 12:10:03;;;;;;;6.13;0.75;;;18.10;99.90;;;;;;5025818;28;20064;-83
2022/10/07 12:12:41;;;;;;;3.20;0.30;;;18.10;99.90;;;;;;5061893;28;20053;-84
2022/10/07 12:15:28;;;;;;;2.58;0.40;;;18.10;99.90;;;;;;5047479;28;20036;-83
2022/10/07 12:18:16;;;;;;;4.07;0.40;;;18.10;99.90;;;;;;5050181;28;20108;-85
2022/10/07 12:20:45;;;;;;;4.20;0.30;;;18.20;99.90;;;;;;5050948;28;20036;-85
2022/10/07 12:23:20;;;;;;;3.95;0.30;;;18.20;99.90;;;;;;5032474;28;20542;-85
2022/10/07 12:26:29;;;;;;;4.93;0.30;;;18.10;99.90;;;;;;5016651;28;20046;-84
2022/10/07 12:28:56;;;;;;;5.95;0.30;;;18.30;99.90;;;;;;5032468;28;20040;-85
2022/10/07 12:31:41;;;;;;;2.92;0.30;;;17.90;99.90;;;;;;5048484;28;20665;-84
2022/10/07 12:34:07;;;;;;;3.83;0.28;;;18.10;99.90;;;;;;5033213;28;20067;-84
2022/10/07 12:36:34;;;;;;;2.28;0.20;;;18.40;99.90;;;;;;5030419;28;20029;-83
2022/10/07 12:39:02;;;;;;;3.37;0.30;;;18.40;99.90;;;;;;5016463;28;20025;-84
2022/10/07 12:41:42;;;;;;;4.95;0.40;;;18.40;99.90;;;;;;5015265;28;20049;-83
2022/10/07 12:44:30;;;;;;;2.83;0.30;;;18.00;99.90;;;;;;5014472;28;20033;-88
2022/10/07 12:47:21;;;;;;;2.72;0.20;;;18.40;99.90;;;;;;5033488;28;20033;-85
2022/10/07 12:49:50;;;;;;;4.18;0.40;;;18.50;99.90;;;;;;5045729;28;20039;-87
2022/10/07 12:52:29;;;;;;;2.42;0.30;;;18.50;99.90;;;;;;5050228;28;20077;-87
2022/10/07 12:55:13;;;;;;;2.53;0.22;;;18.50;99.90;;;;;;5030139;28;20535;-87
2022/10/07 12:57:40;;;;;;;3.80;0.35;;;18.40;99.90;;;;;;5031964;28;20106;-86
2022/10/07 13:00:14;;;;;;;1.90;0.20;;;18.40;99.90;;;;;;5031887;28;20037;-85
2022/10/07 13:02:45;;;;;;;2.35;0.30;;;18.40;99.90;;;;;;5047339;28;20021;-86
2022/10/07 13:05:44;;;;;;;3.65;0.28;;;18.20;99.90;;;;;;5032359;28;20029;-85
2022/10/07 13:08:37;;;;;;;4.60;0.30;;;18.30;99.90;;;;;;5050257;28;20112;-85
2022/10/07 13:11:21;;;;;;;3.38;0.20;;;18.00;99.90;;;;;;5036191;28;20025;-85
2022/10/07 13:13:58;;;;;;;3.17;0.30;;;18.30;99.90;;;;;;5049785;28;20025;-87
2022/10/07 13:16:43;;;;;;;3.50;0.40;;;18.40;99.90;;;;;;5050781;28;20055;-86
2022/10/07 13:19:15;;;;;;;3.72;0.30;;;18.50;99.90;;;;;;5031904;28;20139;-88
2022/10/07 13:22:10;;;;;;;3.70;0.25;;;18.60;99.90;;;;;;5033124;28;20028;-87
2022/10/07 13:24:39;;;;;;;2.88;0.22;;;18.30;99.90;;;;;;5050817;28;20025;-87
2022/10/07 13:27:09;;;;;;;7.15;0.30;;;18.20;99.90;;;;;;5031633;28;20037;-85